Time;durP1;ratioP1;P1;durP2;ratioP2;P2;SDS_P1;SDS_P2;PMS_P1;PMS_P2;Temp;Humidity;BMP_temperature;BMP_pressure;BME280_temperature;BME280_humidity;BME280_pressure;Samples;Min_cycle;Max_cycle;Signal;HPM_P1;HPM_P2
2022/07/23 00:01:01;;;;;;;;;33.00;30.50;;;;;22.28;68.13;101464.13;6277534;22;45731;-80
2022/07/23 00:03:26;;;;;;;;;28.50;28.00;;;;;22.19;68.01;101449.28;6274855;22;45906;-79
2022/07/23 00:05:52;;;;;;;;;31.00;28.25;;;;;22.22;68.24;101457.22;6248826;22;46045;-79
2022/07/23 00:08:17;;;;;;;;;29.50;26.50;;;;;22.26;68.01;101468.69;6277416;22;45167;-79
2022/07/23 00:10:43;;;;;;;;;33.50;30.50;;;;;22.13;68.08;101457.53;6249221;22;45230;-78
2022/07/23 00:13:08;;;;;;;;;34.75;33.00;;;;;22.20;67.92;101472.50;6276173;22;45587;-78
2022/07/23 00:15:34;;;;;;;;;27.25;26.75;;;;;22.07;68.17;101458.66;6276073;22;46210;-79
2022/07/23 00:17:59;;;;;;;;;30.50;28.00;;;;;22.11;68.48;101454.06;6250557;22;45688;-80
2022/07/23 00:20:24;;;;;;;;;31.25;29.25;;;;;22.14;68.06;101464.66;6276256;22;45417;-82
2022/07/23 00:22:53;;;;;;;;;28.50;26.50;;;;;22.10;68.36;101454.97;6278894;22;45402;-81
2022/07/23 00:25:19;;;;;;;;;25.75;24.50;;;;;22.14;68.47;101470.03;6250021;22;47678;-79
2022/07/23 00:27:44;;;;;;;;;37.75;31.25;;;;;22.03;68.49;101447.19;6278555;22;45302;-79
2022/07/23 00:30:11;;;;;;;;;31.50;30.50;;;;;22.02;68.54;101460.66;6279517;22;45287;-80
2022/07/23 00:32:50;;;;;;;;;31.75;27.50;;;;;22.05;68.82;101468.56;6281197;22;45488;-80
2022/07/23 00:35:19;;;;;;;;;32.50;27.00;;;;;22.06;68.80;101464.09;6252836;22;48099;-80
2022/07/23 00:37:44;;;;;;;;;29.25;29.00;;;;;21.97;68.63;101447.44;6250516;22;45407;-80
2022/07/23 00:40:11;;;;;;;;;27.00;24.25;;;;;22.00;68.27;101455.38;6278351;22;45368;-80
2022/07/23 00:42:36;;;;;;;;;27.75;25.00;;;;;22.04;68.33;101464.16;6278280;22;45279;-81
2022/07/23 00:45:03;;;;;;;;;29.50;26.25;;;;;21.98;68.51;101461.72;6278200;22;45299;-80
2022/07/23 00:47:28;;;;;;;;;28.75;28.25;;;;;22.02;68.35;101463.34;6276404;22;45315;-80
2022/07/23 00:49:53;;;;;;;;;29.25;28.75;;;;;21.93;68.49;101455.66;6277751;22;45590;-80
2022/07/23 00:52:19;;;;;;;;;29.50;27.00;;;;;21.91;68.07;101452.16;6276593;22;45323;-80
2022/07/23 00:54:44;;;;;;;;;29.50;28.50;;;;;21.91;68.50;101450.34;6252826;22;47174;-79
2022/07/23 00:57:10;;;;;;;;;25.00;22.50;;;;;21.90;68.62;101445.94;6253083;22;45408;-81
2022/07/23 00:59:35;;;;;;;;;29.00;26.50;;;;;21.93;68.60;101458.34;6280783;22;45331;-80
2022/07/23 01:02:01;;;;;;;;;27.75;24.00;;;;;21.91;68.30;101463.75;6278142;22;45458;-80
2022/07/23 01:04:26;;;;;;;;;23.25;22.50;;;;;21.82;68.62;101452.53;6280810;22;46413;-80
2022/07/23 01:06:52;;;;;;;;;24.50;24.50;;;;;21.82;68.39;101452.53;6280633;22;45247;-80
2022/07/23 01:09:18;;;;;;;;;23.75;21.00;;;;;21.85;68.46;101455.09;6281694;22;45313;-80
2022/07/23 01:11:43;;;;;;;;;27.00;23.50;;;;;21.80;68.49;101440.06;6281965;22;45239;-80
2022/07/23 01:14:14;;;;;;;;;20.00;19.50;;;;;21.78;68.61;101439.28;6282340;22;45177;-81
2022/07/23 01:16:41;;;;;;;;;23.50;21.00;;;;;21.75;68.09;101441.19;6280399;22;45784;-80
2022/07/23 01:19:07;;;;;;;;;23.50;23.00;;;;;21.73;67.79;101443.94;6281596;22;45239;-80
2022/07/23 01:21:37;;;;;;;;;24.75;22.00;;;;;21.75;68.34;101446.53;6277735;22;45470;-80
2022/07/23 01:24:03;;;;;;;;;21.50;20.75;;;;;21.70;67.57;101435.13;6279780;22;46519;-80
2022/07/23 01:26:29;;;;;;;;;23.00;19.25;;;;;21.71;67.79;101437.75;6280133;22;45477;-80
2022/07/23 01:28:54;;;;;;;;;20.00;19.75;;;;;21.77;68.08;101450.91;6252347;22;45382;-79
2022/07/23 01:31:20;;;;;;;;;28.50;24.00;;;;;21.72;68.49;101443.97;6252652;22;45639;-80
2022/07/23 01:33:45;;;;;;;;;23.50;19.50;;;;;21.77;68.27;101458.06;6280299;22;46037;-79
2022/07/23 01:36:11;;;;;;;;;18.25;18.25;;;;;21.73;68.26;101443.03;6277989;22;45244;-80
2022/07/23 01:38:36;;;;;;;;;27.50;24.25;;;;;21.72;68.43;101441.31;6252793;22;45433;-80
2022/07/23 01:41:01;;;;;;;;;24.50;22.00;;;;;21.76;68.51;101449.16;6279864;22;45331;-81
2022/07/23 01:43:27;;;;;;;;;26.00;23.00;;;;;21.73;68.29;101443.94;6252260;22;48097;-80
2022/07/23 01:45:53;;;;;;;;;24.50;22.75;;;;;21.72;68.27;101436.81;6280000;22;45326;-80
2022/07/23 01:48:18;;;;;;;;;19.25;19.25;;;;;21.70;68.17;101430.63;6252370;22;45237;-81
2022/07/23 01:50:46;;;;;;;;;19.25;18.00;;;;;21.82;68.18;101445.38;6252281;22;45139;-80
2022/07/23 01:53:12;;;;;;;;;22.00;19.50;;;;;21.80;67.97;101433.81;6278602;22;45196;-80
2022/07/23 01:55:37;;;;;;;;;22.25;20.50;;;;;21.77;67.66;101437.50;6252035;22;45139;-80
2022/07/23 01:58:03;;;;;;;;;21.75;21.25;;;;;21.76;67.90;101427.72;6252096;22;45133;-80
2022/07/23 02:00:28;;;;;;;;;24.25;22.00;;;;;21.78;67.88;101447.31;6279649;22;45531;-81
2022/07/23 02:02:54;;;;;;;;;16.50;16.00;;;;;21.77;67.57;101433.94;6252222;22;46884;-80
2022/07/23 02:05:19;;;;;;;;;20.00;20.00;;;;;21.82;67.86;101436.47;6252387;22;45400;-81
2022/07/23 02:07:45;;;;;;;;;22.00;21.00;;;;;21.77;67.56;101429.47;6280152;22;45357;-81
2022/07/23 02:10:10;;;;;;;;;21.50;20.50;;;;;21.75;67.45;101435.81;6251932;22;45548;-80
2022/07/23 02:12:36;;;;;;;;;19.25;18.50;;;;;21.73;67.76;101422.50;6279598;22;45286;-80
2022/07/23 02:15:01;;;;;;;;;21.00;20.75;;;;;21.72;67.60;101420.72;6252618;22;45296;-81
2022/07/23 02:17:26;;;;;;;;;22.00;21.00;;;;;21.78;67.59;101430.31;6278384;22;45365;-81
2022/07/23 02:19:52;;;;;;;;;26.00;22.50;;;;;21.75;67.52;101433.13;6279294;22;45596;-80
2022/07/23 02:22:17;;;;;;;;;23.75;23.75;;;;;21.81;67.52;101435.56;6278750;22;45236;-80
2022/07/23 02:24:43;;;;;;;;;23.25;22.00;;;;;21.73;67.70;101429.63;6279093;22;45343;-80
2022/07/23 02:27:08;;;;;;;;;22.25;20.50;;;;;21.74;67.28;101439.44;6251608;22;45294;-79
2022/07/23 02:29:33;;;;;;;;;21.25;20.25;;;;;21.75;67.33;101452.75;6279534;22;45418;-81
2022/07/23 02:31:59;;;;;;;;;26.00;21.75;;;;;21.66;67.14;101446.91;6251234;22;47461;-80
2022/07/23 02:34:24;;;;;;;;;22.75;21.75;;;;;21.62;67.16;101456.84;6279563;22;45206;-81
2022/07/23 02:36:49;;;;;;;;;25.00;19.75;;;;;21.58;67.19;101452.56;6279242;22;45220;-81
2022/07/23 02:39:15;;;;;;;;;20.75;20.50;;;;;21.65;67.45;101478.19;6279309;22;45400;-81
2022/07/23 02:41:40;;;;;;;;;25.50;23.00;;;;;21.51;67.80;101457.25;6251110;22;45710;-81
2022/07/23 02:44:06;;;;;;;;;18.50;16.75;;;;;21.55;67.49;101468.75;6279374;22;45197;-81
2022/07/23 02:46:31;;;;;;;;;20.75;20.50;;;;;21.48;67.30;101461.88;6279300;22;45157;-81
2022/07/23 02:48:56;;;;;;;;;19.50;18.25;;;;;21.51;67.38;101473.34;6251486;22;45502;-81
2022/07/23 02:51:22;;;;;;;;;20.50;17.75;;;;;21.49;67.50;101472.53;6250550;22;47021;-81
2022/07/23 02:53:47;;;;;;;;;23.00;21.75;;;;;21.50;67.62;101468.91;6278239;22;45176;-81
2022/07/23 02:56:13;;;;;;;;;21.00;21.00;;;;;21.55;67.37;101474.13;6251173;22;45185;-81
2022/07/23 02:58:38;;;;;;;;;19.25;18.50;;;;;21.48;67.41;101464.56;6279367;22;45470;-81
2022/07/23 03:01:04;;;;;;;;;21.75;20.25;;;;;21.46;67.13;101466.41;6278815;22;45272;-80
2022/07/23 03:03:29;;;;;;;;;17.25;17.25;;;;;21.49;66.91;101474.31;6278884;22;45358;-81
2022/07/23 03:05:55;;;;;;;;;16.00;16.00;;;;;21.46;66.62;101475.31;6279150;22;45236;-81
2022/07/23 03:08:20;;;;;;;;;19.00;16.25;;;;;21.52;66.47;101491.19;6278863;22;45449;-80
2022/07/23 03:10:45;;;;;;;;;18.00;15.75;;;;;21.54;66.46;101486.66;6278771;22;45510;-81
2022/07/23 03:13:11;;;;;;;;;22.25;19.50;;;;;21.53;66.56;101494.72;6278407;22;45299;-81
2022/07/23 03:15:36;;;;;;;;;19.25;19.00;;;;;21.50;66.23;101495.72;6278978;22;45344;-80
2022/07/23 03:18:02;;;;;;;;;16.50;16.50;;;;;21.41;66.03;101474.63;6278683;22;45421;-80
2022/07/23 03:20:27;;;;;;;;;17.00;16.00;;;;;21.38;66.14;101464.00;6278128;22;45474;-81
2022/07/23 03:22:53;;;;;;;;;18.25;16.25;;;;;21.39;66.45;101476.50;6278578;22;45350;-81
2022/07/23 03:25:18;;;;;;;;;19.25;18.50;;;;;21.48;66.16;101499.38;6252934;22;45317;-80
2022/07/23 03:27:45;;;;;;;;;21.50;20.25;;;;;21.34;66.20;101479.31;6279842;22;45161;-81
2022/07/23 03:30:11;;;;;;;;;20.50;20.00;;;;;21.46;66.27;101499.44;6279513;22;45537;-81
2022/07/23 03:32:37;;;;;;;;;17.75;14.75;;;;;21.40;65.76;101502.34;6251042;22;45202;-80
2022/07/23 03:35:03;;;;;;;;;20.00;16.50;;;;;21.42;65.77;101507.66;6278978;22;45220;-81
2022/07/23 03:37:28;;;;;;;;;18.25;16.50;;;;;21.43;65.67;101501.34;6279076;22;45203;-80
2022/07/23 03:39:54;;;;;;;;;21.50;18.50;;;;;21.36;66.30;101498.88;6277055;22;46746;-80
2022/07/23 03:42:19;;;;;;;;;15.00;13.00;;;;;21.39;66.11;101503.28;6279608;22;45295;-80
2022/07/23 03:44:44;;;;;;;;;24.00;20.00;;;;;21.31;66.19;101489.25;6281107;22;45378;-81
2022/07/23 03:47:10;;;;;;;;;19.00;18.00;;;;;21.37;66.54;101497.06;6252948;22;45522;-79
2022/07/23 03:49:35;;;;;;;;;18.00;16.25;;;;;21.34;66.67;101498.06;6252052;22;48177;-81
2022/07/23 03:52:00;;;;;;;;;24.00;19.25;;;;;21.35;66.46;101499.78;6246637;22;45341;-80
2022/07/23 03:54:26;;;;;;;;;21.50;19.25;;;;;21.40;66.33;101505.03;6248301;22;45306;-80
2022/07/23 03:56:51;;;;;;;;;20.50;20.25;;;;;21.29;66.60;101491.97;6222321;22;45367;-81
2022/07/23 03:59:17;;;;;;;;;20.25;19.25;;;;;21.30;66.62;101488.41;6249888;22;45272;-80
2022/07/23 04:01:42;;;;;;;;;19.25;19.00;;;;;21.37;66.48;101505.09;6222153;22;45265;-81
2022/07/23 04:04:08;;;;;;;;;20.25;18.50;;;;;21.31;66.64;101495.50;6248293;22;45403;-80
2022/07/23 04:06:34;;;;;;;;;18.50;15.75;;;;;21.35;66.50;101498.91;6248483;22;45602;-81
2022/07/23 04:09:00;;;;;;;;;21.75;20.50;;;;;21.39;66.47;101515.81;6222661;22;45404;-80
2022/07/23 04:11:26;;;;;;;;;20.25;19.25;;;;;21.36;66.29;101517.63;6222575;22;45172;-79
2022/07/23 04:13:51;;;;;;;;;19.50;18.00;;;;;21.35;66.10;101526.56;6250466;22;45102;-80
2022/07/23 04:16:16;;;;;;;;;20.75;19.50;;;;;21.21;66.02;101499.44;6250917;22;45216;-81
2022/07/23 04:18:42;;;;;;;;;19.00;17.50;;;;;21.12;65.97;101492.59;6222766;22;48335;-80
2022/07/23 04:21:07;;;;;;;;;21.50;20.00;;;;;21.20;66.11;101513.75;6221772;22;45177;-80
2022/07/23 04:23:33;;;;;;;;;22.00;19.75;;;;;21.22;65.90;101524.41;6249360;22;45114;-81
2022/07/23 04:25:58;;;;;;;;;21.50;19.25;;;;;21.21;65.55;101525.34;6249286;22;45399;-80
2022/07/23 04:28:23;;;;;;;;;16.75;16.00;;;;;21.13;65.68;101522.94;6246842;22;47128;-80
2022/07/23 04:30:49;;;;;;;;;18.50;16.25;;;;;21.03;66.00;101505.44;6221741;22;45491;-80
2022/07/23 04:33:14;;;;;;;;;19.75;18.25;;;;;21.11;65.79;101522.09;6221666;22;45276;-80
2022/07/23 04:35:40;;;;;;;;;21.50;18.75;;;;;21.05;65.49;101514.28;6222238;22;45490;-80
2022/07/23 04:38:05;;;;;;;;;17.25;15.50;;;;;21.00;66.00;101508.22;6222318;22;48023;-80
2022/07/23 04:40:30;;;;;;;;;19.75;15.75;;;;;21.12;65.78;101535.44;6247269;22;45297;-80
2022/07/23 04:42:56;;;;;;;;;20.75;18.50;;;;;21.02;66.66;101520.63;6222236;22;45258;-80
2022/07/23 04:45:23;;;;;;;;;18.50;16.75;;;;;21.10;66.45;101534.63;6246617;22;46243;-81
2022/07/23 04:47:49;;;;;;;;;20.75;19.75;;;;;21.11;66.54;101535.50;6249297;22;45426;-81
2022/07/23 04:50:18;;;;;;;;;15.25;14.00;;;;;21.10;67.10;101539.97;6221314;22;45251;-80
2022/07/23 04:52:44;;;;;;;;;24.50;22.00;;;;;21.00;67.75;101521.59;6237130;22;45626;-80
2022/07/23 04:55:09;;;;;;;;;23.50;19.50;;;;;21.00;67.77;101521.59;6279703;22;45252;-80
2022/07/23 04:57:35;;;;;;;;;23.25;22.25;;;;;21.10;67.82;101539.09;6276645;22;47397;-81
2022/07/23 05:00:01;;;;;;;;;24.50;24.50;;;;;21.04;67.92;101518.78;6252020;22;45371;-80
2022/07/23 05:02:26;;;;;;;;;22.50;20.75;;;;;21.06;67.87;101522.28;6252668;22;45288;-81
2022/07/23 05:04:51;;;;;;;;;24.25;22.25;;;;;21.18;67.97;101537.03;6280514;22;45327;-80
2022/07/23 05:07:17;;;;;;;;;27.25;26.00;;;;;21.20;68.05;101532.50;6281188;22;45921;-80
2022/07/23 05:09:42;;;;;;;;;25.50;23.25;;;;;21.29;67.83;101547.38;6278638;22;45366;-79
2022/07/23 05:12:08;;;;;;;;;21.50;21.25;;;;;21.20;67.83;101537.84;6280311;22;45284;-80
2022/07/23 05:14:33;;;;;;;;;21.00;20.00;;;;;21.21;67.67;101544.94;6280480;22;45249;-80
2022/07/23 05:16:59;;;;;;;;;26.50;24.00;;;;;21.14;67.69;101536.28;6280068;22;45990;-80
2022/07/23 05:19:24;;;;;;;;;28.75;24.75;;;;;21.18;67.62;101538.84;6279721;22;45148;-79
2022/07/23 05:21:50;;;;;;;;;22.50;22.50;;;;;21.13;67.68;101525.59;6251838;22;45705;-80
2022/07/23 05:24:15;;;;;;;;;22.50;21.25;;;;;21.20;67.74;101543.22;6277487;22;45204;-81
2022/07/23 05:26:41;;;;;;;;;26.75;25.50;;;;;21.18;67.88;101534.34;6252326;22;46961;-79
2022/07/23 05:29:06;;;;;;;;;26.50;20.00;;;;;21.21;67.84;101526.22;6280128;22;45236;-80
2022/07/23 05:31:32;;;;;;;;;26.75;25.00;;;;;21.21;68.07;101520.84;6277739;22;45229;-80
2022/07/23 05:33:57;;;;;;;;;21.25;17.75;;;;;21.25;68.19;101516.25;6278261;22;45439;-80
2022/07/23 05:36:22;;;;;;;;;23.75;21.75;;;;;21.34;68.03;101532.88;6251514;22;47050;-78
2022/07/23 05:38:48;;;;;;;;;23.75;23.75;;;;;21.35;67.40;101518.53;6277929;22;45260;-80
2022/07/23 05:41:13;;;;;;;;;26.75;24.00;;;;;21.48;67.50;101532.41;6280354;22;45230;-80
2022/07/23 05:43:38;;;;;;;;;25.25;23.50;;;;;21.53;67.88;101546.50;6279660;22;45485;-81
2022/07/23 05:46:04;;;;;;;;;27.75;27.50;;;;;21.50;67.32;101537.72;6253067;22;47288;-80
2022/07/23 05:48:29;;;;;;;;;28.75;25.75;;;;;21.50;67.72;101527.00;6279974;22;45188;-80
2022/07/23 05:50:55;;;;;;;;;25.50;23.25;;;;;21.63;67.54;101543.50;6252593;22;45285;-80
2022/07/23 05:53:20;;;;;;;;;28.75;25.75;;;;;21.65;67.47;101550.56;6279401;22;45311;-81
2022/07/23 05:55:46;;;;;;;;;30.75;28.75;;;;;21.71;67.38;101547.66;6252156;22;46185;-80
2022/07/23 05:58:11;;;;;;;;;28.00;24.50;;;;;21.71;67.07;101550.31;6280422;22;45411;-82
2022/07/23 06:00:37;;;;;;;;;31.25;28.50;;;;;21.74;67.22;101539.47;6251987;22;45307;-81
2022/07/23 06:03:02;;;;;;;;;36.25;32.50;;;;;21.74;67.00;101541.28;6278979;22;45386;-80
2022/07/23 06:05:27;;;;;;;;;30.00;27.00;;;;;21.74;67.10;101536.81;6278249;22;45294;-80
2022/07/23 06:07:54;;;;;;;;;38.00;31.00;;;;;21.69;67.11;101540.59;6276571;22;45351;-81
2022/07/23 06:10:19;;;;;;;;;43.00;33.50;;;;;21.71;67.18;101550.31;6251242;22;45123;-81
2022/07/23 06:12:45;;;;;;;;;41.75;33.25;;;;;21.77;66.88;101559.94;6276770;22;45443;-81
2022/07/23 06:15:11;;;;;;;;;43.00;34.25;;;;;21.78;67.17;101559.91;6278445;22;46528;-79
2022/07/23 06:17:39;;;;;;;;;35.00;29.50;;;;;21.71;67.37;101550.31;6250785;22;45590;-80
2022/07/23 06:20:09;;;;;;;;;41.00;34.50;;;;;21.69;67.40;101544.13;6250598;22;45293;-79
2022/07/23 06:22:35;;;;;;;;;47.00;38.25;;;;;21.74;67.53;101557.38;6278700;22;45252;-79
2022/07/23 06:25:01;;;;;;;;;47.50;37.00;;;;;21.71;67.49;101555.69;6278629;22;46148;-80
2022/07/23 06:27:26;;;;;;;;;43.50;36.25;;;;;21.80;67.53;101566.06;6278687;22;45162;-79
2022/07/23 06:29:52;;;;;;;;;46.50;37.50;;;;;21.79;67.36;101564.31;6279090;22;45808;-80
2022/07/23 06:32:17;;;;;;;;;49.00;38.25;;;;;21.74;67.67;101560.94;6276757;22;45483;-80
2022/07/23 06:34:43;;;;;;;;;51.25;40.00;;;;;21.78;67.60;101564.34;6278444;22;46361;-79
2022/07/23 06:37:08;;;;;;;;;48.25;40.00;;;;;21.82;67.92;101565.13;6278300;22;45253;-80
2022/07/23 06:39:33;;;;;;;;;50.50;39.50;;;;;21.84;67.76;101566.84;6250848;22;45658;-79
2022/07/23 06:42:00;;;;;;;;;49.50;38.75;;;;;21.84;67.26;101560.56;6250737;22;45741;-80
2022/07/23 06:44:26;;;;;;;;;47.00;38.00;;;;;21.79;67.40;101561.63;6250623;22;47939;-81
2022/07/23 06:46:51;;;;;;;;;49.25;40.00;;;;;21.85;67.49;101570.38;6276476;22;45342;-80
2022/07/23 06:49:17;;;;;;;;;55.00;42.25;;;;;21.90;67.14;101571.94;6250821;22;45430;-80
2022/07/23 06:51:42;;;;;;;;;48.50;40.75;;;;;21.86;67.41;101561.38;6277747;22;45262;-80
2022/07/23 06:54:07;;;;;;;;;50.00;39.25;;;;;21.87;67.65;101560.47;6276284;22;47200;-80
2022/07/23 06:56:33;;;;;;;;;42.75;36.75;;;;;21.89;67.17;101567.53;6250936;22;45402;-79
2022/07/23 06:58:58;;;;;;;;;47.50;39.00;;;;;21.96;67.42;101566.34;6278555;22;45195;-80
2022/07/23 07:01:24;;;;;;;;;50.50;40.25;;;;;22.05;67.55;101591.94;6250752;22;45627;-79
2022/07/23 07:03:49;;;;;;;;;53.00;41.75;;;;;21.99;67.40;101582.31;6250558;22;47667;-80
2022/07/23 07:06:14;;;;;;;;;52.50;40.25;;;;;21.98;67.02;101585.94;6277550;22;45110;-80
2022/07/23 07:08:40;;;;;;;;;48.75;40.50;;;;;21.91;67.38;101580.88;6278556;22;45223;-80
2022/07/23 07:11:06;;;;;;;;;49.00;40.00;;;;;21.94;67.35;101592.34;6250617;22;45193;-79
2022/07/23 07:13:31;;;;;;;;;50.75;39.75;;;;;21.87;67.39;101587.28;6276015;22;47507;-79
2022/07/23 07:15:57;;;;;;;;;49.00;40.50;;;;;21.90;67.71;101596.09;6275038;22;45199;-79
2022/07/23 07:18:22;;;;;;;;;43.50;36.75;;;;;21.93;67.42;101612.06;6278106;22;45278;-79
2022/07/23 07:20:48;;;;;;;;;52.50;43.50;;;;;21.88;67.46;101607.78;6277944;22;45137;-79
2022/07/23 07:23:14;;;;;;;;;50.75;39.75;;;;;21.83;67.85;101599.91;6250278;22;47159;-79
2022/07/23 07:25:39;;;;;;;;;55.25;43.75;;;;;21.89;67.50;101610.44;6278020;22;45399;-79
2022/07/23 07:28:05;;;;;;;;;48.50;38.75;;;;;21.94;67.39;101620.97;6250093;22;45354;-80
2022/07/23 07:30:30;;;;;;;;;47.75;40.00;;;;;21.87;67.57;101611.41;6277891;22;45291;-81
2022/07/23 07:32:55;;;;;;;;;52.25;41.50;;;;;21.88;67.68;101616.72;6277652;22;45371;-80
2022/07/23 07:35:21;;;;;;;;;56.50;43.25;;;;;21.91;67.54;101613.03;6277833;22;45334;-81
2022/07/23 07:37:46;;;;;;;;;56.00;42.50;;;;;21.93;67.37;101617.41;6249745;22;45361;-79
2022/07/23 07:40:11;;;;;;;;;48.75;40.00;;;;;22.04;67.87;101625.06;6275833;22;45481;-80
2022/07/23 07:42:48;;;;;;;;;49.50;40.00;;;;;22.11;67.30;101636.44;6249749;22;47383;-80
2022/07/23 07:45:13;;;;;;;;;50.50;40.00;;;;;22.10;67.44;101635.53;6277658;22;45343;-81
2022/07/23 07:47:39;;;;;;;;;49.00;38.00;;;;;22.05;67.19;101610.69;6276389;22;45198;-80
2022/07/23 07:50:05;;;;;;;;;48.75;39.00;;;;;22.19;67.38;101626.34;6277538;22;45149;-78
2022/07/23 07:52:30;;;;;;;;;48.50;39.00;;;;;22.23;67.02;101633.31;6249289;22;47048;-83
2022/07/23 07:54:55;;;;;;;;;46.75;40.00;;;;;22.31;66.55;101633.91;6249874;22;45237;-82
2022/07/23 07:57:21;;;;;;;;;46.50;38.00;;;;;22.38;66.82;101640.78;6249279;22;45265;-79
2022/07/23 07:59:46;;;;;;;;;43.00;34.50;;;;;22.41;66.62;101637.97;6248997;22;45209;-80
2022/07/23 08:02:11;;;;;;;;;47.25;39.50;;;;;22.45;66.49;101644.09;6276747;22;45231;-82
2022/07/23 08:04:37;;;;;;;;;48.50;40.25;;;;;22.43;66.31;101643.28;6276930;22;45253;-79
2022/07/23 08:07:02;;;;;;;;;47.00;40.00;;;;;22.37;66.31;101633.69;6276692;22;45225;-79
2022/07/23 08:09:27;;;;;;;;;48.75;39.00;;;;;22.51;66.05;101645.66;6249199;22;45434;-78
2022/07/23 08:11:53;;;;;;;;;46.75;37.25;;;;;22.42;66.02;101628.97;6275268;22;45937;-78
2022/07/23 08:14:18;;;;;;;;;48.00;39.25;;;;;22.57;66.02;101643.63;6249849;22;45159;-85
2022/07/23 08:16:44;;;;;;;;;41.75;32.25;;;;;22.59;65.95;101646.25;6277973;22;45442;-85
2022/07/23 08:19:09;;;;;;;;;50.50;40.25;;;;;22.58;65.91;101636.44;6249711;22;45351;-85
2022/07/23 08:21:35;;;;;;;;;41.50;34.50;;;;;22.62;65.73;101643.44;6277339;22;45271;-86
2022/07/23 08:24:00;;;;;;;;;41.75;34.75;;;;;22.70;65.57;101643.16;6275913;22;45344;-86
2022/07/23 08:26:25;;;;;;;;;46.50;36.75;;;;;22.81;65.37;101659.69;6250611;22;45327;-84
2022/07/23 08:28:51;;;;;;;;;46.50;36.75;;;;;22.85;65.15;101669.34;6275863;22;45339;-84
2022/07/23 08:31:17;;;;;;;;;46.00;37.50;;;;;22.81;65.17;101657.88;6277073;22;47132;-84
2022/07/23 08:33:43;;;;;;;;;46.75;38.50;;;;;22.86;65.35;101669.31;6251480;22;45261;-83
2022/07/23 08:36:08;;;;;;;;;47.00;37.75;;;;;22.87;64.70;101667.50;6278555;22;45170;-83
2022/07/23 08:38:35;;;;;;;;;47.75;39.00;;;;;22.93;64.52;101680.66;6282148;22;45300;-82
2022/07/23 08:41:01;;;;;;;;;39.75;34.50;;;;;22.96;64.69;101685.97;6257310;22;46103;-86
2022/07/23 08:43:30;;;;;;;;;46.75;37.00;;;;;22.89;64.84;101652.19;6282986;22;45141;-83
2022/07/23 08:45:57;;;;;;;;;44.00;35.75;;;;;23.13;64.78;101682.59;6283537;22;45602;-86
2022/07/23 08:48:28;;;;;;;;;46.50;37.25;;;;;23.22;64.43;101665.19;6281863;22;44781;-88
2022/07/23 08:50:58;;;;;;;;;45.75;36.75;;;;;23.39;64.04;101686.88;6256730;22;47698;-84
2022/07/23 08:53:26;;;;;;;;;43.75;36.25;;;;;23.52;63.69;101690.78;6255560;22;45210;-85
2022/07/23 08:55:53;;;;;;;;;40.75;34.00;;;;;23.52;62.95;101685.41;6283852;22;45211;-85
2022/07/23 08:58:19;;;;;;;;;44.00;37.00;;;;;23.51;62.85;101685.47;6254974;22;45418;-85
2022/07/23 09:00:47;;;;;;;;;43.25;36.25;;;;;23.46;62.91;101690.16;6283542;22;45385;-84
2022/07/23 09:03:18;;;;;;;;;42.75;36.25;;;;;23.45;63.03;101683.06;6287668;22;45255;-87
2022/07/23 09:05:44;;;;;;;;;50.00;39.50;;;;;23.47;62.80;101684.75;6283014;22;45291;-82
2022/07/23 09:08:15;;;;;;;;;45.25;37.00;;;;;23.49;62.68;101681.97;6282395;22;45409;-85
2022/07/23 09:10:59;;;;;;;;;44.00;35.25;;;;;23.53;62.46;101676.41;6285146;22;45335;-82
2022/07/23 09:13:36;;;;;;;;;47.00;36.25;;;;;23.71;62.52;101677.47;6282988;22;45214;-82
2022/07/23 09:16:25;;;;;;;;;42.25;36.75;;;;;23.74;62.08;101671.06;6252909;22;45170;-86
2022/07/23 09:18:52;;;;;;;;;45.00;36.00;;;;;23.87;61.87;101683.03;6282560;22;45239;-88
2022/07/23 09:21:23;;;;;;;;;45.00;35.50;;;;;23.92;62.00;101685.50;6280617;22;47321;-83
2022/07/23 09:23:50;;;;;;;;;43.50;35.25;;;;;23.94;61.82;101684.50;6283676;22;45264;-82
2022/07/23 09:26:23;;;;;;;;;40.00;33.00;;;;;23.93;61.70;101673.81;6277628;22;45303;-87
2022/07/23 09:29:19;;;;;;;;;42.25;34.75;;;;;24.04;61.06;101681.41;6279548;22;45645;-83
2022/07/23 09:31:48;;;;;;;;;40.75;35.50;;;;;24.16;60.95;101687.13;6254836;22;47224;-83
2022/07/23 09:34:28;;;;;;;;;43.50;34.75;;;;;24.28;60.30;101676.72;6255231;22;45249;-92
2022/07/23 09:36:57;;;;;;;;;42.50;35.25;;;;;24.34;60.97;101673.72;6258899;22;45224;-90
2022/07/23 09:39:32;;;;;;;;;42.50;35.25;;;;;24.46;59.88;101675.91;6256531;22;45490;-89
2022/07/23 09:42:12;;;;;;;;;41.75;34.00;;;;;24.51;60.14;101672.97;6254634;22;48536;-88
2022/07/23 09:44:42;;;;;;;;;43.00;35.25;;;;;24.58;60.26;101680.69;6229491;22;45347;-87
2022/07/23 09:47:07;;;;;;;;;41.75;34.75;;;;;24.64;59.32;101691.19;6231565;22;45460;-88
2022/07/23 09:49:33;;;;;;;;;37.50;31.50;;;;;24.72;59.22;101677.31;6257418;22;45471;-91
2022/07/23 09:52:01;;;;;;;;;43.75;35.00;;;;;24.84;59.14;101684.84;6275659;22;48221;-88
2022/07/23 09:54:38;;;;;;;;;37.25;34.25;;;;;24.85;59.28;101681.19;6250431;22;45703;-89
2022/07/23 09:57:16;;;;;;;;;37.50;34.00;;;;;25.01;58.31;101683.13;6250170;22;45229;-88
2022/07/23 09:59:46;;;;;;;;;41.25;31.75;;;;;25.08;58.39;101674.66;6249314;22;45606;-87
2022/07/23 10:02:12;;;;;;;;;68.75;54.75;;;;;25.20;58.28;101667.81;6278073;22;45279;-88
2022/07/23 10:04:39;;;;;;;;;42.00;34.75;;;;;25.38;58.17;101671.41;6250449;22;45220;-88
2022/07/23 10:07:08;;;;;;;;;37.25;30.75;;;;;25.38;56.92;101654.38;6278480;22;45251;-85
2022/07/23 10:09:40;;;;;;;;;35.00;31.75;;;;;25.52;57.10;101676.09;6275330;22;45666;-81
2022/07/23 10:12:35;;;;;;;;;38.25;32.75;;;;;25.47;56.74;101678.16;6248642;22;47473;-81
2022/07/23 10:15:01;;;;;;;;;36.25;32.25;;;;;25.45;56.96;101678.25;6276896;22;45434;-81
2022/07/23 10:17:30;;;;;;;;;41.25;33.25;;;;;25.46;56.42;101668.31;6275175;22;45373;-80
2022/07/23 10:19:55;;;;;;;;;33.50;31.00;;;;;25.59;56.25;101677.53;6248971;22;45300;-81
2022/07/23 10:22:27;;;;;;;;;36.00;31.50;;;;;25.53;56.19;101665.25;6274079;22;47298;-79
2022/07/23 10:25:04;;;;;;;;;36.25;32.50;;;;;25.65;56.10;101681.72;6277449;22;45609;-79
2022/07/23 10:27:51;;;;;;;;;35.50;32.25;;;;;25.62;56.02;101669.28;6248832;22;45227;-80
2022/07/23 10:30:35;;;;;;;;;33.75;31.00;;;;;25.65;55.49;101663.72;6274861;22;45518;-80
2022/07/23 10:33:29;;;;;;;;;36.00;29.75;;;;;25.81;55.10;101669.19;6276781;22;45350;-77
2022/07/23 10:36:01;;;;;;;;;30.00;29.00;;;;;25.96;54.86;101679.19;6276728;22;45234;-78
2022/07/23 10:38:43;;;;;;;;;34.25;30.00;;;;;26.03;55.12;101682.41;6245867;22;45899;-79
2022/07/23 10:41:08;;;;;;;;;27.50;25.75;;;;;26.09;54.49;101673.13;6272891;22;45213;-78
2022/07/23 10:43:34;;;;;;;;;35.75;31.25;;;;;26.07;54.05;101677.75;6276401;22;45471;-81
2022/07/23 10:49:27;;;;;;;;;29.25;25.50;;;;;26.04;54.28;101702.22;6277257;22;45224;-81
2022/07/23 10:52:26;;;;;;;;;30.75;27.75;;;;;25.90;53.97;101690.31;6248467;22;45580;-81
2022/07/23 10:54:57;;;;;;;;;32.25;29.25;;;;;25.92;54.40;101709.13;6259879;22;45234;-83
2022/07/23 10:57:25;;;;;;;;;51.25;41.50;;;;;25.86;53.76;101715.72;6275216;22;45452;-82
2022/07/23 11:00:08;;;;;;;;;39.00;33.25;;;;;25.89;54.23;101715.53;6249690;22;45317;-83
2022/07/23 11:03:06;;;;;;;;;;;;;;;;;;;;;
2022/07/23 11:06:00;;;;;;;;;44.75;37.50;;;;;25.88;53.82;101718.34;6274981;22;74554;-84
2022/07/23 11:08:25;;;;;;;;;73.50;61.75;;;;;25.94;54.48;101728.81;6249417;22;45628;-82
2022/07/23 11:11:06;;;;;;;;;35.75;32.50;;;;;25.94;54.25;101712.63;6249999;22;45202;-80
2022/07/23 11:16:34;;;;;;;;;31.75;28.00;;;;;25.99;53.61;101721.34;6261679;22;45390;-88